createdAt,value
2023-08-12T00:01:32.288Z,13.58
2023-08-12T00:04:00.803Z,13.54
2023-08-12T00:06:29.464Z,13.49
2023-08-12T00:08:59.243Z,13.43
2023-08-12T00:11:27.968Z,13.38
2023-08-12T00:13:56.867Z,13.35
2023-08-12T00:16:27.511Z,13.35
2023-08-12T00:18:56.366Z,13.31
2023-08-12T00:21:30.583Z,13.22
2023-08-12T00:24:00.627Z,13.19
2023-08-12T00:26:29.796Z,13.15
2023-08-12T00:28:58.631Z,13.16
2023-08-12T00:31:29.016Z,13.10
2023-08-12T00:33:58.694Z,13.02
2023-08-12T00:36:27.542Z,12.99
2023-08-12T00:39:00.551Z,12.95
2023-08-12T00:41:30.043Z,12.93
2023-08-12T00:43:59.178Z,12.91
2023-08-12T00:46:28.080Z,12.93
2023-08-12T00:48:57.042Z,12.95
2023-08-12T00:51:29.844Z,12.90
2023-08-12T00:54:01.398Z,12.83
2023-08-12T00:56:31.527Z,12.78
2023-08-12T00:59:02.418Z,12.78
2023-08-12T01:01:33.734Z,12.71
2023-08-12T01:04:02.371Z,12.65
2023-08-12T01:06:30.935Z,12.55
2023-08-12T01:08:59.539Z,12.55
2023-08-12T01:11:38.843Z,12.43
2023-08-12T01:14:13.456Z,12.38
2023-08-12T01:16:47.020Z,12.40
2023-08-12T01:19:26.656Z,12.43
2023-08-12T01:21:56.398Z,12.45
2023-08-12T01:24:28.115Z,12.34
2023-08-12T01:26:56.837Z,12.30
2023-08-12T01:29:25.384Z,12.25
2023-08-12T01:31:57.899Z,12.23
2023-08-12T01:34:35.189Z,12.21
2023-08-12T01:37:06.343Z,12.19
2023-08-12T01:39:37.856Z,12.15
2023-08-12T01:42:07.988Z,12.07
2023-08-12T01:44:36.685Z,12.08
2023-08-12T01:47:05.707Z,12.05
2023-08-12T01:49:37.257Z,11.98
2023-08-12T01:52:06.276Z,11.98
2023-08-12T01:54:36.406Z,11.97
2023-08-12T01:57:07.372Z,11.94
2023-08-12T01:59:36.643Z,11.93
2023-08-12T02:02:06.002Z,11.94
2023-08-12T02:04:37.885Z,11.94
2023-08-12T02:07:07.187Z,11.88
2023-08-12T02:09:37.046Z,11.79
2023-08-12T02:12:06.622Z,11.79
2023-08-12T02:14:35.366Z,11.75
2023-08-12T02:17:04.037Z,11.69
2023-08-12T02:19:32.910Z,11.63
2023-08-12T02:22:01.685Z,11.59
2023-08-12T02:24:30.711Z,11.58
2023-08-12T02:27:03.165Z,11.54
2023-08-12T02:29:31.649Z,11.52
2023-08-12T02:32:00.116Z,11.58
2023-08-12T02:34:28.889Z,11.65
2023-08-12T02:37:00.507Z,11.61
2023-08-12T02:39:29.258Z,11.52
2023-08-12T02:41:58.074Z,11.45
2023-08-12T02:44:28.925Z,11.38
2023-08-12T02:46:57.801Z,11.34
2023-08-12T02:49:26.074Z,11.37
2023-08-12T02:51:55.437Z,11.32
2023-08-12T02:54:23.962Z,11.35
2023-08-12T02:56:53.006Z,11.29
2023-08-12T02:59:21.762Z,11.25
2023-08-12T03:01:52.049Z,11.23
2023-08-12T03:04:20.785Z,11.20
2023-08-12T03:06:49.975Z,11.17
2023-08-12T03:09:21.240Z,11.11
2023-08-12T03:11:54.571Z,11.06
2023-08-12T03:14:23.395Z,11.03
2023-08-12T03:16:53.652Z,10.98
2023-08-12T03:19:22.587Z,10.90
2023-08-12T03:21:51.309Z,10.87
2023-08-12T03:24:19.993Z,10.88
2023-08-12T03:26:52.770Z,10.85
2023-08-12T03:29:21.698Z,10.82
2023-08-12T03:31:55.031Z,10.80
2023-08-12T03:34:25.307Z,10.81
2023-08-12T03:36:54.081Z,10.81
2023-08-12T03:39:22.979Z,10.81
2023-08-12T03:41:54.120Z,10.81
2023-08-12T03:44:23.427Z,10.81
2023-08-12T03:46:55.154Z,10.84
2023-08-12T03:49:24.827Z,10.80
2023-08-12T03:51:55.998Z,10.87
2023-08-12T03:54:24.745Z,10.90
2023-08-12T03:56:53.613Z,10.87
2023-08-12T03:59:23.020Z,10.87
2023-08-12T04:01:51.784Z,10.88
2023-08-12T04:04:22.612Z,10.87
2023-08-12T04:06:53.358Z,10.91
2023-08-12T04:09:22.917Z,10.92
2023-08-12T04:11:52.082Z,10.95
2023-08-12T04:14:20.782Z,10.98
2023-08-12T04:16:49.324Z,11.02
2023-08-12T04:19:21.494Z,11.04
2023-08-12T04:21:50.485Z,11.07
2023-08-12T04:24:20.464Z,11.10
2023-08-12T04:26:50.081Z,11.14
2023-08-12T04:29:19.425Z,11.20
2023-08-12T04:31:51.525Z,11.24
2023-08-12T04:34:21.764Z,11.32
2023-08-12T04:36:51.042Z,11.34
2023-08-12T04:39:19.782Z,11.39
2023-08-12T04:41:48.735Z,11.44
2023-08-12T04:44:18.238Z,11.48
2023-08-12T04:46:47.850Z,11.53
2023-08-12T04:49:18.330Z,11.58
2023-08-12T04:51:48.619Z,11.65
2023-08-12T04:54:17.357Z,11.71
2023-08-12T04:56:45.999Z,11.79
2023-08-12T04:59:15.057Z,11.86
2023-08-12T05:01:58.583Z,11.93
2023-08-12T05:04:34.907Z,12.03
2023-08-12T05:07:06.893Z,12.12
2023-08-12T05:09:36.493Z,12.19
2023-08-12T05:12:05.653Z,12.26
2023-08-12T05:14:34.535Z,12.35
2023-08-12T05:17:04.068Z,12.46
2023-08-12T05:19:33.398Z,12.58
2023-08-12T05:22:07.017Z,12.70
2023-08-12T05:24:35.964Z,12.81
2023-08-12T05:27:05.295Z,12.94
2023-08-12T05:29:33.966Z,13.08
2023-08-12T05:32:03.453Z,13.22
2023-08-12T05:34:32.872Z,13.41
2023-08-12T05:37:01.937Z,13.54
2023-08-12T05:39:32.113Z,13.65
2023-08-12T05:42:01.538Z,13.79
2023-08-12T05:44:30.059Z,13.95
2023-08-12T05:46:58.431Z,14.11
2023-08-12T05:49:27.147Z,14.26
2023-08-12T05:51:55.940Z,14.40
2023-08-12T05:54:24.876Z,14.55
2023-08-12T05:56:55.321Z,14.77
2023-08-12T05:59:23.953Z,14.99
2023-08-12T06:01:52.543Z,15.18
2023-08-12T06:04:21.064Z,15.38
2023-08-12T06:06:49.768Z,15.60
2023-08-12T06:09:18.392Z,15.81
2023-08-12T06:11:46.976Z,16.00
2023-08-12T06:14:17.165Z,16.13
2023-08-12T06:16:44.755Z,16.36
2023-08-12T06:19:13.258Z,16.60
2023-08-12T06:21:42.119Z,16.85
2023-08-12T06:24:11.003Z,17.06
2023-08-12T06:26:39.652Z,17.23
2023-08-12T06:29:08.262Z,17.39
2023-08-12T06:31:38.679Z,17.54
2023-08-12T06:34:08.381Z,17.65
2023-08-12T06:36:37.718Z,17.84
2023-08-12T06:39:07.477Z,17.96
2023-08-12T06:41:36.173Z,18.06
2023-08-12T06:44:06.009Z,18.19
2023-08-12T06:46:35.401Z,18.39
2023-08-12T06:49:06.135Z,18.65
2023-08-12T06:51:37.832Z,18.88
2023-08-12T06:54:07.322Z,19.14
2023-08-12T06:56:36.042Z,19.31
2023-08-12T06:59:04.880Z,19.38
2023-08-12T07:01:33.534Z,19.42
2023-08-12T07:04:02.956Z,19.48
2023-08-12T07:06:33.324Z,19.66
2023-08-12T07:09:01.934Z,19.90
2023-08-12T07:11:33.245Z,20.06
2023-08-12T07:14:02.398Z,20.11
2023-08-12T07:16:31.803Z,20.31
2023-08-12T07:19:00.569Z,20.61
2023-08-12T07:21:29.209Z,20.80
2023-08-12T07:24:03.888Z,20.88
2023-08-12T07:26:33.080Z,20.95
2023-08-12T07:29:02.618Z,21.09
2023-08-12T07:31:31.894Z,21.17
2023-08-12T07:34:01.193Z,21.28
2023-08-12T07:36:30.286Z,21.42
2023-08-12T07:39:00.621Z,21.56
2023-08-12T07:41:29.432Z,21.77
2023-08-12T07:43:58.531Z,21.89
2023-08-12T07:46:27.592Z,21.84
2023-08-12T07:48:56.252Z,21.88
2023-08-12T07:51:25.205Z,22.07
2023-08-12T07:53:54.089Z,22.28
2023-08-12T07:56:24.925Z,22.42
2023-08-12T07:58:53.615Z,22.53
2023-08-12T08:01:23.036Z,22.51
2023-08-12T08:03:52.484Z,22.54
2023-08-12T08:06:21.325Z,22.68
2023-08-12T08:08:49.968Z,22.86
2023-08-12T08:11:18.642Z,23.02
2023-08-12T08:13:48.623Z,23.07
2023-08-12T08:16:17.770Z,23.09
2023-08-12T08:18:46.977Z,23.25
2023-08-12T08:21:16.130Z,23.29
2023-08-12T08:23:46.029Z,23.32
2023-08-12T08:26:16.931Z,23.39
2023-08-12T08:28:46.238Z,23.57
2023-08-12T08:31:16.814Z,23.58
2023-08-12T08:33:45.818Z,23.63
2023-08-12T08:36:14.823Z,23.78
2023-08-12T08:38:43.960Z,23.88
2023-08-12T08:41:13.184Z,23.93
2023-08-12T08:43:45.186Z,24.00
2023-08-12T08:46:18.078Z,24.13
2023-08-12T08:48:48.080Z,24.24
2023-08-12T08:51:17.339Z,24.26
2023-08-12T08:53:46.488Z,24.31
2023-08-12T08:56:16.279Z,24.47
2023-08-12T08:58:45.206Z,24.63
2023-08-12T09:01:16.900Z,24.70
2023-08-12T09:03:46.093Z,24.88
2023-08-12T09:06:14.970Z,24.99
2023-08-12T09:08:47.574Z,24.99
2023-08-12T09:11:18.133Z,25.00
2023-08-12T09:13:49.324Z,25.03
2023-08-12T09:16:19.841Z,25.13
2023-08-12T09:18:51.018Z,25.32
2023-08-12T09:21:20.035Z,25.50
2023-08-12T09:23:49.161Z,25.69
2023-08-12T09:26:19.479Z,25.76
2023-08-12T09:28:49.359Z,25.82
2023-08-12T09:31:28.134Z,25.81
2023-08-12T09:34:01.013Z,25.90
2023-08-12T09:36:36.769Z,25.96
2023-08-12T09:39:10.385Z,25.96
2023-08-12T09:41:40.849Z,25.95
2023-08-12T09:44:09.431Z,26.00
2023-08-12T09:46:40.612Z,26.12
2023-08-12T09:49:09.635Z,26.17
2023-08-12T09:51:41.083Z,26.31
2023-08-12T09:54:11.583Z,26.51
2023-08-12T09:56:43.149Z,26.65
2023-08-12T09:59:13.600Z,26.80
2023-08-12T10:01:45.812Z,26.85
2023-08-12T10:04:19.558Z,26.96
2023-08-12T10:06:50.560Z,27.06
2023-08-12T10:09:20.297Z,27.05
2023-08-12T10:11:49.093Z,27.10
2023-08-12T10:14:18.640Z,27.16
2023-08-12T10:16:49.083Z,27.22
2023-08-12T10:19:19.341Z,27.36
2023-08-12T10:21:49.879Z,27.55
2023-08-12T10:24:19.333Z,27.61
2023-08-12T10:26:48.876Z,27.54
2023-08-12T10:29:18.111Z,27.63
2023-08-12T10:31:49.700Z,27.78
2023-08-12T10:34:22.943Z,27.93
2023-08-12T10:37:02.847Z,28.12
2023-08-12T10:39:35.295Z,28.02
2023-08-12T10:42:04.143Z,28.04
2023-08-12T10:44:41.908Z,28.12
2023-08-12T10:47:13.386Z,28.14
2023-08-12T10:49:46.108Z,28.17
2023-08-12T10:52:29.809Z,28.20
2023-08-12T10:55:19.056Z,28.24
2023-08-12T10:57:48.439Z,28.41
2023-08-12T11:00:23.079Z,28.58
2023-08-12T11:02:54.171Z,28.67
2023-08-12T11:05:23.407Z,28.77
2023-08-12T11:07:59.598Z,28.91
2023-08-12T11:10:31.931Z,28.99
2023-08-12T11:13:03.793Z,29.07
2023-08-12T11:15:34.916Z,29.08
2023-08-12T11:18:07.099Z,29.11
2023-08-12T11:20:37.385Z,29.01
2023-08-12T11:23:10.826Z,28.86
2023-08-12T11:25:40.859Z,28.82
2023-08-12T11:28:13.942Z,28.84
2023-08-12T11:30:44.921Z,28.83
2023-08-12T11:33:14.989Z,28.87
2023-08-12T11:35:43.503Z,29.05
2023-08-12T11:38:14.521Z,29.01
2023-08-12T11:40:43.052Z,29.11
2023-08-12T11:43:11.565Z,29.35
2023-08-12T11:45:44.388Z,29.49
2023-08-12T11:48:14.455Z,29.52
2023-08-12T11:50:45.237Z,29.46
2023-08-12T11:53:13.788Z,29.39
2023-08-12T11:55:42.409Z,29.43
2023-08-12T11:58:11.223Z,29.49
2023-08-12T12:00:40.038Z,29.65
2023-08-12T12:03:09.186Z,29.67
2023-08-12T12:05:39.036Z,29.70
2023-08-12T12:08:10.189Z,29.66
2023-08-12T12:10:38.519Z,29.61
2023-08-12T12:13:10.217Z,29.75
2023-08-12T12:15:41.172Z,29.81
2023-08-12T12:18:12.326Z,29.87
2023-08-12T12:20:57.777Z,29.90
2023-08-12T12:23:30.258Z,30.01
2023-08-12T12:26:02.838Z,30.12
2023-08-12T12:28:34.179Z,30.03
2023-08-12T12:31:03.089Z,30.08
2023-08-12T12:33:31.626Z,30.17
2023-08-12T12:36:04.081Z,30.17
2023-08-12T12:38:34.388Z,30.17
2023-08-12T12:41:02.912Z,30.13
2023-08-12T12:43:31.293Z,30.07
2023-08-12T12:45:59.726Z,30.13
2023-08-12T12:48:29.847Z,30.13
2023-08-12T12:50:58.909Z,30.03
2023-08-12T12:53:28.663Z,30.02
2023-08-12T12:56:05.062Z,30.09
2023-08-12T12:58:34.337Z,30.14
2023-08-12T13:01:03.074Z,30.05
2023-08-12T13:03:32.576Z,30.03
2023-08-12T13:06:01.980Z,30.04
2023-08-12T13:08:32.954Z,30.06
2023-08-12T13:11:01.594Z,29.90
2023-08-12T13:13:30.368Z,29.74
2023-08-12T13:15:59.259Z,29.65
2023-08-12T13:18:27.613Z,29.61
2023-08-12T13:20:56.422Z,29.71
2023-08-12T13:23:24.742Z,29.78
2023-08-12T13:25:55.169Z,29.97
2023-08-12T13:28:23.775Z,30.09
2023-08-12T13:30:52.066Z,30.00
2023-08-12T13:33:20.772Z,29.90
2023-08-12T13:35:49.468Z,29.85
2023-08-12T13:38:18.277Z,29.89
2023-08-12T13:40:46.620Z,29.73
2023-08-12T13:43:17.183Z,29.65
2023-08-12T13:45:45.579Z,29.64
2023-08-12T13:48:14.079Z,29.57
2023-08-12T13:50:43.244Z,29.60
2023-08-12T13:53:14.204Z,29.60
2023-08-12T13:55:43.348Z,29.58
2023-08-12T13:58:15.692Z,29.57
2023-08-12T14:00:45.391Z,29.45
2023-08-12T14:03:13.662Z,29.41
2023-08-12T14:05:42.348Z,29.32
2023-08-12T14:08:10.602Z,29.36
2023-08-12T14:10:38.834Z,29.33
2023-08-12T14:13:08.048Z,29.35
2023-08-12T14:15:38.083Z,29.25
2023-08-12T14:18:08.206Z,29.14
2023-08-12T14:20:36.633Z,29.18
2023-08-12T14:23:05.543Z,29.09
2023-08-12T14:25:33.980Z,29.12
2023-08-12T14:28:02.499Z,29.17
2023-08-12T14:30:30.765Z,29.11
2023-08-12T14:33:00.298Z,29.04
2023-08-12T14:35:30.819Z,28.92
2023-08-12T14:37:59.030Z,28.86
2023-08-12T14:40:28.890Z,28.68
2023-08-12T14:42:57.699Z,28.54
2023-08-12T14:45:26.135Z,28.53
2023-08-12T14:47:54.513Z,28.45
2023-08-12T14:50:23.191Z,28.36
2023-08-12T14:52:52.901Z,28.42
2023-08-12T14:55:22.404Z,28.42
2023-08-12T14:57:51.604Z,28.35
2023-08-12T15:00:20.999Z,28.28
2023-08-12T15:02:49.456Z,28.23
2023-08-12T15:05:18.933Z,28.14
2023-08-12T15:07:47.203Z,28.07
2023-08-12T15:10:16.935Z,28.04
2023-08-12T15:12:45.604Z,27.93
2023-08-12T15:15:14.820Z,27.83
2023-08-12T15:17:43.099Z,27.71
2023-08-12T15:20:12.454Z,27.59
2023-08-12T15:22:40.645Z,27.48
2023-08-12T15:25:09.929Z,27.39
2023-08-12T15:27:39.668Z,27.32
2023-08-12T15:30:09.281Z,27.28
2023-08-12T15:32:41.492Z,27.28
2023-08-12T15:35:11.958Z,27.16
2023-08-12T15:37:42.161Z,26.95
2023-08-12T15:40:11.503Z,26.82
2023-08-12T15:42:44.758Z,26.69
2023-08-12T15:45:14.535Z,26.66
2023-08-12T15:47:43.008Z,26.60
2023-08-12T15:50:13.545Z,26.49
2023-08-12T15:52:41.939Z,26.35
2023-08-12T15:55:10.637Z,26.23
2023-08-12T15:57:38.937Z,26.14
2023-08-12T16:00:11.905Z,26.06
2023-08-12T16:02:41.868Z,26.03
2023-08-12T16:05:10.895Z,26.05
2023-08-12T16:07:41.175Z,26.05
2023-08-12T16:10:10.624Z,25.96
2023-08-12T16:12:39.094Z,25.89
2023-08-12T16:15:09.761Z,25.81
2023-08-12T16:17:38.088Z,25.71
2023-08-12T16:20:09.107Z,25.66
2023-08-12T16:22:37.403Z,25.62
2023-08-12T16:25:06.579Z,25.56
2023-08-12T16:27:35.021Z,25.50
2023-08-12T16:30:03.413Z,25.42
2023-08-12T16:32:33.209Z,25.34
2023-08-12T16:35:01.966Z,25.27
2023-08-12T16:37:30.405Z,25.19
2023-08-12T16:39:59.356Z,25.09
2023-08-12T16:42:28.268Z,24.98
2023-08-12T16:44:56.871Z,24.89
2023-08-12T16:47:25.709Z,24.79
2023-08-12T16:49:55.464Z,24.65
2023-08-12T16:52:25.949Z,24.61
2023-08-12T16:54:54.245Z,24.58
2023-08-12T16:57:22.680Z,24.51
2023-08-12T16:59:52.175Z,24.39
2023-08-12T17:02:20.673Z,24.34
2023-08-12T17:04:49.213Z,24.22
2023-08-12T17:07:22.376Z,24.08
2023-08-12T17:09:50.674Z,23.97
2023-08-12T17:12:19.227Z,23.88
2023-08-12T17:14:48.466Z,23.76
2023-08-12T17:17:17.132Z,23.65
2023-08-12T17:19:45.497Z,23.53
2023-08-12T17:22:14.237Z,23.42
2023-08-12T17:24:44.721Z,23.29
2023-08-12T17:27:13.056Z,23.18
2023-08-12T17:29:41.452Z,23.07
2023-08-12T17:32:09.667Z,22.93
2023-08-12T17:34:38.557Z,22.80
2023-08-12T17:37:06.902Z,22.67
2023-08-12T17:39:36.462Z,22.52
2023-08-12T17:42:06.459Z,22.39
2023-08-12T17:44:35.382Z,22.26
2023-08-12T17:47:03.816Z,22.15
2023-08-12T17:49:32.658Z,22.02
2023-08-12T17:52:02.375Z,21.89
2023-08-12T17:54:31.161Z,21.75
2023-08-12T17:56:59.294Z,21.63
2023-08-12T17:59:28.898Z,21.47
2023-08-12T18:01:57.339Z,21.37
2023-08-12T18:04:26.742Z,21.28
2023-08-12T18:06:55.189Z,21.19
2023-08-12T18:09:24.110Z,21.11
2023-08-12T18:11:52.496Z,21.00
2023-08-12T18:14:22.576Z,20.89
2023-08-12T18:16:52.421Z,20.76
2023-08-12T18:19:23.802Z,20.68
2023-08-12T18:21:52.073Z,20.59
2023-08-12T18:24:20.217Z,20.49
2023-08-12T18:26:48.496Z,20.40
2023-08-12T18:29:17.254Z,20.32
2023-08-12T18:31:45.626Z,20.21
2023-08-12T18:34:15.146Z,20.15
2023-08-12T18:36:43.824Z,20.08
2023-08-12T18:39:12.227Z,19.98
2023-08-12T18:41:40.907Z,19.91
2023-08-12T18:44:09.523Z,19.83
2023-08-12T18:46:38.226Z,19.74
2023-08-12T18:49:06.967Z,19.66
2023-08-12T18:51:36.650Z,19.62
2023-08-12T18:54:05.772Z,19.59
2023-08-12T18:56:34.365Z,19.54
2023-08-12T18:59:02.628Z,19.50
2023-08-12T19:01:30.915Z,19.47
2023-08-12T19:03:59.456Z,19.40
2023-08-12T19:06:27.971Z,19.31
2023-08-12T19:08:57.856Z,19.19
2023-08-12T19:11:26.360Z,19.06
2023-08-12T19:13:54.833Z,18.93
2023-08-12T19:16:23.261Z,18.85
2023-08-12T19:18:52.150Z,18.78
2023-08-12T19:21:20.829Z,18.68
2023-08-12T19:23:51.449Z,18.57
2023-08-12T19:26:25.142Z,18.50
2023-08-12T19:28:53.700Z,18.43
2023-08-12T19:31:21.981Z,18.33
2023-08-12T19:33:51.053Z,18.27
2023-08-12T19:36:19.391Z,18.17
2023-08-12T19:38:47.950Z,18.08
2023-08-12T19:41:17.373Z,18.00
2023-08-12T19:43:47.768Z,17.90
2023-08-12T19:46:16.915Z,17.84
2023-08-12T19:48:55.809Z,17.78
2023-08-12T19:51:24.163Z,17.82
2023-08-12T19:53:52.929Z,17.82
2023-08-12T19:56:21.162Z,17.78
2023-08-12T19:58:51.107Z,17.69
2023-08-12T20:01:19.914Z,17.60
2023-08-12T20:03:48.570Z,17.53
2023-08-12T20:06:17.503Z,17.50
2023-08-12T20:08:46.120Z,17.43
2023-08-12T20:11:14.621Z,17.40
2023-08-12T20:13:43.089Z,17.35
2023-08-12T20:16:12.796Z,17.31
2023-08-12T20:18:41.619Z,17.26
2023-08-12T20:21:09.935Z,17.21
2023-08-12T20:23:38.300Z,17.21
2023-08-12T20:26:06.812Z,17.21
2023-08-12T20:28:35.336Z,17.20
2023-08-12T20:31:04.961Z,17.20
2023-08-12T20:33:35.549Z,17.22
2023-08-12T20:36:04.168Z,17.24
2023-08-12T20:38:33.000Z,17.20
2023-08-12T20:41:02.796Z,17.13
2023-08-12T20:43:31.282Z,17.07
2023-08-12T20:45:59.839Z,17.06
2023-08-12T20:48:28.622Z,17.00
2023-08-12T20:51:01.949Z,16.93
2023-08-12T20:53:32.453Z,16.86
2023-08-12T20:56:01.245Z,16.81
2023-08-12T20:58:29.885Z,16.78
2023-08-12T21:00:59.067Z,16.75
2023-08-12T21:03:27.933Z,16.71
2023-08-12T21:05:56.410Z,16.70
2023-08-12T21:08:27.429Z,16.65
2023-08-12T21:10:56.031Z,16.62
2023-08-12T21:13:24.364Z,16.54
2023-08-12T21:15:53.218Z,16.52
2023-08-12T21:18:21.898Z,16.49
2023-08-12T21:20:50.405Z,16.44
2023-08-12T21:23:21.119Z,16.38
2023-08-12T21:25:51.163Z,16.33
2023-08-12T21:28:20.025Z,16.30
2023-08-12T21:30:51.808Z,16.27
2023-08-12T21:33:20.843Z,16.23
2023-08-12T21:35:50.159Z,16.19
2023-08-12T21:38:19.306Z,16.10
2023-08-12T21:40:48.187Z,16.05
2023-08-12T21:43:18.656Z,16.00
2023-08-12T21:45:47.941Z,15.96
2023-08-12T21:48:16.851Z,15.92
2023-08-12T21:50:45.791Z,15.88
2023-08-12T21:53:14.376Z,15.83
2023-08-12T21:55:43.810Z,15.77
2023-08-12T21:58:12.104Z,15.74
2023-08-12T22:00:42.196Z,15.69
2023-08-12T22:03:11.067Z,15.65
2023-08-12T22:05:39.349Z,15.62
2023-08-12T22:08:08.262Z,15.60
2023-08-12T22:10:36.683Z,15.59
2023-08-12T22:13:06.972Z,15.61
2023-08-12T22:15:35.567Z,15.62
2023-08-12T22:18:06.025Z,15.64
2023-08-12T22:20:34.716Z,15.60
2023-08-12T22:23:03.914Z,15.63
2023-08-12T22:25:32.377Z,15.63
2023-08-12T22:28:00.912Z,15.59
2023-08-12T22:30:29.900Z,15.56
2023-08-12T22:32:58.652Z,15.50
2023-08-12T22:35:28.764Z,15.45
2023-08-12T22:37:57.207Z,15.44
2023-08-12T22:40:26.096Z,15.42
2023-08-12T22:42:56.785Z,15.40
2023-08-12T22:45:25.440Z,15.35
2023-08-12T22:47:54.218Z,15.29
2023-08-12T22:50:22.882Z,15.24
2023-08-12T22:52:52.682Z,15.21
2023-08-12T22:55:21.801Z,15.18
2023-08-12T22:57:50.918Z,15.17
2023-08-12T23:00:21.508Z,15.17
2023-08-12T23:02:50.175Z,15.19
2023-08-12T23:05:19.073Z,15.15
2023-08-12T23:07:47.802Z,15.08
2023-08-12T23:10:17.855Z,15.03
2023-08-12T23:12:46.321Z,15.01
2023-08-12T23:15:17.951Z,15.03
2023-08-12T23:17:46.811Z,15.02
2023-08-12T23:20:15.744Z,14.98
2023-08-12T23:22:44.556Z,14.94
2023-08-12T23:25:14.483Z,14.86
2023-08-12T23:27:44.986Z,14.79
2023-08-12T23:30:15.470Z,14.74
2023-08-12T23:32:45.790Z,14.71
2023-08-12T23:35:18.995Z,14.72
2023-08-12T23:37:48.042Z,14.70
2023-08-12T23:40:17.921Z,14.67
2023-08-12T23:42:47.671Z,14.66
2023-08-12T23:45:15.976Z,14.67
2023-08-12T23:47:44.442Z,14.67
2023-08-12T23:50:13.748Z,14.64
2023-08-12T23:52:42.448Z,14.63
2023-08-12T23:55:11.339Z,14.61
2023-08-12T23:57:40.069Z,14.61
